Time;durP1;ratioP1;P1;durP2;ratioP2;P2;SDS_P1;SDS_P2;PMS_P1;PMS_P2;Temp;Humidity;BMP_temperature;BMP_pressure;BME280_temperature;BME280_humidity;BME280_pressure;Samples;Min_cycle;Max_cycle;Signal;HPM_P1;HPM_P2
2022/04/23 00:00:35;;;;;;;19.20;10.73;;;;;;;7.71;100.00;97574.91;4486221;32;20104;-79
2022/04/23 00:03:03;;;;;;;18.30;11.57;;;;;;;7.75;100.00;97578.03;4485977;32;20374;-79
2022/04/23 00:05:30;;;;;;;15.80;10.60;;;;;;;7.71;100.00;97576.72;4485472;32;20461;-78
2022/04/23 00:07:57;;;;;;;17.73;10.27;;;;;;;7.71;100.00;97582.75;4485616;31;20084;-78
2022/04/23 00:10:24;;;;;;;16.55;10.75;;;;;;;7.64;100.00;97581.69;4485868;32;20445;-79
2022/04/23 00:12:54;;;;;;;21.00;10.90;;;;;;;7.77;100.00;97583.94;4485705;32;20109;-79
2022/04/23 00:15:25;;;;;;;18.75;11.15;;;;;;;7.66;100.00;97582.38;4485895;31;20575;-79
2022/04/23 00:17:52;;;;;;;16.83;10.43;;;;;;;7.62;100.00;97584.44;4485874;32;20077;-78
2022/04/23 00:20:23;;;;;;;19.05;11.65;;;;;;;7.66;100.00;97591.97;4485903;31;20176;-78
2022/04/23 00:22:50;;;;;;;18.37;11.82;;;;;;;7.52;100.00;97590.69;4486038;31;20092;-79
2022/04/23 00:25:17;;;;;;;23.10;12.43;;;;;;;7.51;100.00;97587.28;4485766;31;20188;-79
2022/04/23 00:27:45;;;;;;;20.67;12.40;;;;;;;7.45;100.00;97590.47;4486092;31;20093;-79
2022/04/23 00:30:13;;;;;;;21.67;11.98;;;;;;;7.37;100.00;97590.34;4485349;31;20108;-79
2022/04/23 00:32:40;;;;;;;22.30;12.95;;;;;;;7.37;100.00;97585.16;4485647;32;20119;-79
2022/04/23 00:35:12;;;;;;;24.20;13.90;;;;;;;7.38;100.00;97586.78;4485516;32;20498;-78
2022/04/23 00:37:39;;;;;;;20.67;12.40;;;;;;;7.44;100.00;97592.22;4485711;31;20545;-79
2022/04/23 00:40:07;;;;;;;19.40;12.57;;;;;;;7.40;100.00;97590.06;4485787;31;20461;-79
2022/04/23 00:43:05;;;;;;;20.00;12.57;;;;;;;7.46;100.00;97586.88;4484436;32;20101;-79
2022/04/23 00:45:33;;;;;;;23.08;11.95;;;;;;;7.53;100.00;97595.75;4485462;32;20088;-78
2022/04/23 00:48:00;;;;;;;21.60;12.73;;;;;;;7.42;100.00;97598.56;4485503;31;20131;-78
2022/04/23 00:50:27;;;;;;;22.42;13.10;;;;;;;7.53;100.00;97600.16;4485842;31;20088;-78
2022/04/23 00:53:02;;;;;;;19.20;11.57;;;;;;;7.57;100.00;97594.50;4485643;32;20112;-79
2022/04/23 00:55:32;;;;;;;19.60;11.93;;;;;;;7.49;100.00;97597.00;4485601;31;20085;-79
2022/04/23 00:57:59;;;;;;;17.37;10.98;;;;;;;7.55;100.00;97604.22;4484313;32;20111;-78
2022/04/23 01:00:27;;;;;;;18.90;11.85;;;;;;;7.55;100.00;97603.41;4484193;32;20484;-78
2022/04/23 01:02:54;;;;;;;20.20;10.88;;;;;;;7.55;100.00;97599.00;4485456;32;20130;-79
2022/04/23 01:05:26;;;;;;;20.67;11.98;;;;;;;7.60;100.00;97595.97;4485340;32;20166;-79
2022/04/23 01:07:53;;;;;;;18.52;11.38;;;;;;;7.62;100.00;97594.88;4485337;31;20107;-78
2022/04/23 01:10:21;;;;;;;19.25;10.95;;;;;;;7.64;100.00;97597.31;4485530;31;20150;-78
2022/04/23 01:12:48;;;;;;;20.90;11.65;;;;;;;7.67;100.00;97596.22;4484142;32;20108;-78
2022/04/23 01:15:15;;;;;;;19.37;11.55;;;;;;;7.63;100.00;97599.13;4484229;32;20414;-79
2022/04/23 01:17:43;;;;;;;19.48;10.90;;;;;;;7.62;100.00;97588.84;4485368;31;20096;-78
2022/04/23 01:20:15;;;;;;;22.25;11.32;;;;;;;7.74;100.00;97597.28;4485375;31;20180;-78
2022/04/23 01:22:44;;;;;;;16.23;11.00;;;;;;;7.72;100.00;97599.19;4485431;31;20144;-78
2022/04/23 01:25:13;;;;;;;18.08;11.10;;;;;;;7.65;100.00;97609.41;4485388;31;20117;-78
2022/04/23 01:27:41;;;;;;;16.60;10.85;;;;;;;7.65;100.00;97601.56;4485499;31;20120;-78
2022/04/23 01:30:12;;;;;;;18.87;11.73;;;;;;;7.56;100.00;97600.66;4485192;31;20127;-78
2022/04/23 01:32:40;;;;;;;21.90;11.82;;;;;;;7.55;100.00;97598.22;4485389;31;20110;-78
2022/04/23 01:35:07;;;;;;;20.50;11.70;;;;;;;7.52;100.00;97598.50;4485205;31;20096;-79
2022/04/23 01:37:34;;;;;;;19.08;11.32;;;;;;;7.52;100.00;97596.72;4485178;31;20085;-78
2022/04/23 01:40:02;;;;;;;17.87;11.55;;;;;;;7.51;100.00;97592.47;4485303;31;20171;-78
2022/04/23 01:42:29;;;;;;;17.77;11.20;;;;;;;7.46;100.00;97602.50;4484037;32;20097;-79
2022/04/23 01:44:56;;;;;;;21.42;12.05;;;;;;;7.53;100.00;97597.53;4485209;31;20119;-78
2022/04/23 01:47:24;;;;;;;20.40;12.57;;;;;;;7.43;100.00;97606.25;4484621;31;20093;-78
2022/04/23 01:49:51;;;;;;;21.95;12.25;;;;;;;7.45;100.00;97603.50;4485089;31;20119;-78
2022/04/23 01:52:18;;;;;;;20.77;13.15;;;;;;;7.45;100.00;97603.50;4485087;31;20122;-78
2022/04/23 01:54:45;;;;;;;19.77;12.57;;;;;;;7.43;100.00;97598.44;4485203;31;20854;-78
2022/04/23 01:57:12;;;;;;;20.20;12.15;;;;;;;7.44;100.00;97605.25;4485162;31;20104;-78
2022/04/23 01:59:39;;;;;;;17.55;11.88;;;;;;;7.44;100.00;97607.87;4485437;32;20111;-78
2022/04/23 02:02:07;;;;;;;21.70;13.90;;;;;;;7.46;100.00;97608.56;4485070;32;20108;-78
2022/04/23 02:04:34;;;;;;;20.35;12.27;;;;;;;7.45;100.00;97613.91;4485113;31;20133;-78
2022/04/23 02:07:02;;;;;;;25.60;14.13;;;;;;;7.37;100.00;97606.00;4484658;32;20130;-76
2022/04/23 02:09:30;;;;;;;22.60;14.20;;;;;;;7.33;100.00;97612.44;4484936;32;20115;-78
2022/04/23 02:11:57;;;;;;;25.23;13.75;;;;;;;7.27;100.00;97612.06;4485086;31;20092;-78
2022/04/23 02:14:24;;;;;;;25.05;15.55;;;;;;;7.20;100.00;97611.00;4484961;31;20111;-78
2022/04/23 02:16:52;;;;;;;30.83;15.25;;;;;;;7.32;100.00;97616.03;4484896;31;20161;-78
2022/04/23 02:19:19;;;;;;;25.67;14.65;;;;;;;7.20;100.00;97620.63;4484945;31;20149;-78
2022/04/23 02:21:46;;;;;;;23.15;13.98;;;;;;;7.17;100.00;97606.09;4484953;31;20511;-78
2022/04/23 02:24:13;;;;;;;23.62;13.82;;;;;;;7.17;100.00;97616.50;4484975;31;20127;-78
2022/04/23 02:26:41;;;;;;;24.70;14.27;;;;;;;7.20;100.00;97613.59;4484836;32;20088;-78
2022/04/23 02:29:08;;;;;;;25.20;15.18;;;;;;;7.19;100.00;97617.19;4484536;31;20605;-78
2022/04/23 02:31:35;;;;;;;25.25;14.45;;;;;;;7.14;100.00;97616.78;4484839;31;20122;-78
2022/04/23 02:34:02;;;;;;;24.85;14.40;;;;;;;7.14;100.00;97611.59;4484570;31;20115;-78
2022/04/23 02:36:30;;;;;;;21.65;13.13;;;;;;;7.19;100.00;97613.75;4484638;31;20126;-78
2022/04/23 02:38:58;;;;;;;26.10;14.80;;;;;;;7.32;100.00;97618.66;4484710;31;20096;-78
2022/04/23 02:41:25;;;;;;;23.08;14.35;;;;;;;7.23;100.00;97625.53;4484611;31;20131;-78
2022/04/23 02:43:53;;;;;;;24.17;14.15;;;;;;;7.27;100.00;97625.09;4484613;31;20114;-78
2022/04/23 02:46:20;;;;;;;24.35;14.75;;;;;;;7.27;100.00;97617.28;4484712;31;20152;-78
2022/04/23 02:48:48;;;;;;;22.83;13.45;;;;;;;7.22;100.00;97624.72;4484580;31;20126;-78
2022/04/23 02:51:16;;;;;;;26.37;15.02;;;;;;;7.10;100.00;97620.63;4484633;31;20581;-78
2022/04/23 02:53:43;;;;;;;24.02;14.70;;;;;;;7.13;100.00;97625.59;4484371;31;20088;-78
2022/04/23 02:56:16;;;;;;;25.83;14.87;;;;;;;7.14;100.00;97623.78;4484598;32;20077;-78
2022/04/23 02:58:44;;;;;;;25.23;14.82;;;;;;;7.12;100.00;97623.94;4484607;31;20513;-78
2022/04/23 03:01:11;;;;;;;25.08;13.85;;;;;;;7.16;100.00;97625.31;4486211;31;20156;-78
2022/04/23 03:03:43;;;;;;;24.17;14.73;;;;;;;7.22;100.00;97626.50;4486404;31;20084;-78
2022/04/23 03:06:12;;;;;;;24.75;13.82;;;;;;;7.18;100.00;97625.16;4486126;31;20134;-78
2022/04/23 03:08:39;;;;;;;24.95;14.00;;;;;;;7.15;100.00;97623.66;4486172;32;20088;-78
2022/04/23 03:11:07;;;;;;;25.65;14.48;;;;;;;7.20;100.00;97626.62;4486298;31;20092;-78
2022/04/23 03:13:35;;;;;;;24.67;14.50;;;;;;;7.15;100.00;97623.66;4486186;31;20080;-78
2022/04/23 03:16:03;;;;;;;21.98;13.55;;;;;;;7.22;100.00;97623.87;4486270;31;20355;-78
2022/04/23 03:18:31;;;;;;;26.30;14.25;;;;;;;7.15;100.00;97618.44;4486200;31;20450;-78
2022/04/23 03:20:58;;;;;;;24.92;14.60;;;;;;;7.13;100.00;97617.78;4486255;31;20092;-78
2022/04/23 03:23:27;;;;;;;25.17;14.10;;;;;;;7.11;100.00;97611.88;4486116;31;20088;-78
2022/04/23 03:25:54;;;;;;;28.10;13.70;;;;;;;7.13;100.00;97622.97;4486384;31;20109;-78
2022/04/23 03:28:22;;;;;;;20.77;13.02;;;;;;;7.16;100.00;97621.84;4486088;31;20118;-78
2022/04/23 03:30:49;;;;;;;28.02;14.48;;;;;;;7.14;100.00;97626.41;4485856;32;20147;-78
2022/04/23 03:33:16;;;;;;;22.33;13.35;;;;;;;7.11;100.00;97627.50;4485983;32;20105;-78
2022/04/23 03:35:44;;;;;;;20.17;12.50;;;;;;;7.17;100.00;97636.53;4485729;31;20123;-78
2022/04/23 03:38:12;;;;;;;21.25;13.05;;;;;;;7.18;100.00;97639.00;4485965;31;20126;-78
2022/04/23 03:40:39;;;;;;;24.17;12.52;;;;;;;7.22;100.00;97636.91;4486150;31;20088;-78
2022/04/23 03:43:06;;;;;;;26.42;14.00;;;;;;;7.23;100.00;97636.75;4485895;31;20602;-78
2022/04/23 03:45:33;;;;;;;23.55;13.20;;;;;;;7.18;100.00;97644.19;4486082;31;20465;-78
2022/04/23 03:48:01;;;;;;;24.15;13.25;;;;;;;7.27;100.00;97645.13;4486026;31;20461;-78
2022/04/23 03:50:29;;;;;;;21.35;13.32;;;;;;;7.30;100.00;97650.06;4485936;31;20155;-78
2022/04/23 03:52:57;;;;;;;23.90;13.73;;;;;;;7.28;100.00;97655.41;4485925;31;20113;-78
2022/04/23 03:55:25;;;;;;;22.20;13.32;;;;;;;7.38;100.00;97647.53;4486054;31;20363;-78
2022/04/23 03:57:54;;;;;;;25.17;13.00;;;;;;;7.38;100.00;97654.53;4485868;31;20088;-78
2022/04/23 04:00:22;;;;;;;20.52;13.02;;;;;;;7.48;100.00;97655.31;4485728;32;20164;-78
2022/04/23 04:02:50;;;;;;;22.55;12.40;;;;;;;7.51;100.00;97660.25;4485748;31;20131;-78
2022/04/23 04:05:17;;;;;;;29.58;13.98;;;;;;;7.39;100.00;97671.81;4485639;31;20114;-78
2022/04/23 04:07:46;;;;;;;22.90;12.52;;;;;;;7.42;100.00;97666.31;4485896;31;20096;-78
2022/04/23 04:10:17;;;;;;;19.15;11.52;;;;;;;7.42;100.00;97667.13;4485527;31;20171;-78
2022/04/23 04:12:44;;;;;;;22.55;12.90;;;;;;;7.42;100.00;97667.13;4484528;32;20113;-78
2022/04/23 04:15:15;;;;;;;24.40;12.52;;;;;;;7.45;100.00;97666.03;4485645;31;20214;-78
2022/04/23 04:17:44;;;;;;;21.67;11.93;;;;;;;7.40;100.00;97669.06;4485818;31;20430;-78
2022/04/23 04:20:12;;;;;;;18.87;11.95;;;;;;;7.46;100.00;97667.66;4485806;31;20096;-78
2022/04/23 04:22:40;;;;;;;19.12;11.98;;;;;;;7.55;100.00;97676.37;4485682;31;20097;-78
2022/04/23 04:25:09;;;;;;;20.58;12.13;;;;;;;7.56;100.00;97673.66;4484521;32;20127;-78
2022/04/23 04:27:37;;;;;;;19.60;12.30;;;;;;;7.55;100.00;97676.37;4485669;31;20088;-78
2022/04/23 04:30:07;;;;;;;18.80;12.00;;;;;;;7.60;100.00;97685.44;4485508;31;20492;-78
2022/04/23 04:32:35;;;;;;;18.00;11.27;;;;;;;7.63;100.00;97685.13;4485851;31;20093;-78
2022/04/23 04:35:02;;;;;;;18.40;11.10;;;;;;;7.66;100.00;97685.78;4485480;31;20138;-78
2022/04/23 04:37:29;;;;;;;19.23;10.75;;;;;;;7.77;100.00;97688.22;4485515;31;20088;-78
2022/04/23 04:39:57;;;;;;;18.05;11.02;;;;;;;7.70;100.00;97685.38;4485579;31;20125;-78
2022/04/23 04:42:24;;;;;;;20.85;11.48;;;;;;;7.75;100.00;97684.91;4485513;31;20458;-78
2022/04/23 04:44:51;;;;;;;17.62;11.38;;;;;;;7.85;100.00;97687.50;4485907;31;20104;-78
2022/04/23 04:47:18;;;;;;;18.23;10.15;;;;;;;7.64;100.00;97694.59;4485624;31;20594;-78
2022/04/23 04:49:45;;;;;;;21.75;12.50;;;;;;;7.81;100.00;97692.16;4485935;31;20088;-78
2022/04/23 04:52:13;;;;;;;18.75;11.12;;;;;;;7.89;100.00;97683.59;4485637;31;20150;-78
2022/04/23 04:54:40;;;;;;;19.80;11.75;;;;;;;7.99;100.00;97684.37;4485501;31;20085;-78
2022/04/23 04:57:08;;;;;;;20.00;11.45;;;;;;;8.12;100.00;97684.81;4485593;31;20453;-78
2022/04/23 04:59:35;;;;;;;17.23;10.02;;;;;;;8.21;100.00;97679.72;4485411;31;20100;-78
2022/04/23 05:02:03;;;;;;;15.65;10.57;;;;;;;8.11;100.00;97688.41;4485298;31;20092;-78
2022/04/23 05:04:31;;;;;;;18.30;10.68;;;;;;;8.18;100.00;97683.41;4485423;31;20097;-79
2022/04/23 05:06:58;;;;;;;16.20;10.93;;;;;;;8.15;100.00;97688.94;4484049;32;20100;-78
2022/04/23 05:09:26;;;;;;;17.17;10.43;;;;;;;8.38;100.00;97680.66;4485369;32;20107;-78
2022/04/23 05:11:53;;;;;;;16.87;10.82;;;;;;;8.33;100.00;97681.94;4485669;31;20092;-78
2022/04/23 05:14:20;;;;;;;16.80;9.55;;;;;;;8.39;100.00;97685.72;4485248;31;20438;-79
2022/04/23 05:16:47;;;;;;;16.40;10.13;;;;;;;8.27;100.00;97687.75;4485466;32;20119;-78
2022/04/23 05:19:14;;;;;;;19.20;10.25;;;;;;;8.31;100.00;97693.47;4485253;31;20096;-78
2022/04/23 05:21:42;;;;;;;17.45;10.95;;;;;;;8.33;100.00;97694.97;4485130;31;20101;-78
2022/04/23 05:24:10;;;;;;;16.05;9.10;;;;;;;8.36;100.00;97701.69;4485113;32;20153;-78
2022/04/23 05:26:37;;;;;;;16.37;10.65;;;;;;;8.31;100.00;97701.31;4485380;31;20123;-78
2022/04/23 05:29:04;;;;;;;13.27;9.45;;;;;;;8.35;100.00;97703.47;4485410;31;20572;-78
2022/04/23 05:31:32;;;;;;;17.12;10.20;;;;;;;8.31;100.00;97701.31;4485245;31;20509;-78
2022/04/23 05:34:00;;;;;;;20.30;12.27;;;;;;;8.34;100.00;97709.66;4485145;31;20084;-78
2022/04/23 05:36:27;;;;;;;22.90;13.40;;;;;;;8.40;100.00;97710.03;4485154;31;20103;-78
2022/04/23 05:38:55;;;;;;;20.90;13.32;;;;;;;8.45;100.00;97703.44;4485260;31;20108;-78
2022/04/23 05:41:23;;;;;;;20.90;12.98;;;;;;;8.42;100.00;97702.84;4483879;32;20115;-78
2022/04/23 05:43:50;;;;;;;23.25;12.32;;;;;;;8.69;100.00;97707.19;4485130;31;20119;-78
2022/04/23 05:46:18;;;;;;;16.33;10.93;;;;;;;8.82;100.00;97709.44;4485171;31;20629;-78
2022/04/23 05:48:45;;;;;;;18.80;11.25;;;;;;;9.00;100.00;97718.03;4485308;31;20118;-78
2022/04/23 05:51:12;;;;;;;14.45;9.75;;;;;;;9.14;100.00;97718.47;4485000;31;20097;-78
2022/04/23 05:53:39;;;;;;;19.50;10.52;;;;;;;9.41;100.00;97723.50;4485123;32;20103;-77
2022/04/23 05:56:07;;;;;;;13.82;9.20;;;;;;;9.38;100.00;97717.78;4485068;31;20099;-78
2022/04/23 05:58:36;;;;;;;11.75;9.10;;;;;;;9.54;100.00;97717.06;4485168;31;20109;-78
2022/04/23 06:01:04;;;;;;;15.15;9.23;;;;;;;9.67;100.00;97717.41;4485012;31;20171;-78
2022/04/23 06:03:32;;;;;;;14.10;8.32;;;;;;;9.91;100.00;97728.97;4482197;31;84102;-77
2022/04/23 06:05:59;;;;;;;13.10;8.68;;;;;;;10.24;100.00;97735.09;4484830;31;20144;-78
2022/04/23 06:08:26;;;;;;;13.30;9.15;;;;;;;10.69;100.00;97740.91;4484810;31;20163;-78
2022/04/23 06:10:54;;;;;;;12.65;8.45;;;;;;;10.81;97.50;97744.84;4484976;31;20167;-77
2022/04/23 06:13:21;;;;;;;12.90;8.35;;;;;;;10.83;97.38;97737.63;4485283;31;20395;-77
2022/04/23 06:15:48;;;;;;;11.98;8.88;;;;;;;10.72;97.47;97742.38;4484862;31;20092;-78
2022/04/23 06:18:15;;;;;;;13.07;9.07;;;;;;;10.81;98.57;97741.41;4484964;32;20248;-77
2022/04/23 06:20:43;;;;;;;13.15;8.82;;;;;;;11.04;98.18;97736.31;4484929;31;20110;-77
2022/04/23 06:23:10;;;;;;;12.30;8.48;;;;;;;11.22;95.18;97748.41;4484711;31;20111;-78
2022/04/23 06:25:37;;;;;;;15.27;8.27;;;;;;;11.19;94.13;97749.56;4484996;31;20099;-78
2022/04/23 06:28:05;;;;;;;10.63;7.93;;;;;;;11.03;95.56;97757.47;4484928;31;20660;-78
2022/04/23 06:30:32;;;;;;;12.37;7.35;;;;;;;11.15;97.10;97761.38;4484517;31;20096;-78
2022/04/23 06:32:59;;;;;;;14.20;8.30;;;;;;;11.38;94.65;97771.16;4484729;32;20113;-78
2022/04/23 06:35:26;;;;;;;12.60;8.30;;;;;;;11.14;95.46;97770.22;4484403;31;20119;-78
2022/04/23 06:37:54;;;;;;;13.45;8.30;;;;;;;11.34;94.29;97774.13;4484799;31;20118;-77
2022/04/23 06:40:21;;;;;;;12.00;7.87;;;;;;;11.42;93.73;97778.53;4484738;31;20093;-78
2022/04/23 06:42:48;;;;;;;12.88;8.05;;;;;;;11.50;94.50;97777.69;4484679;31;20115;-77
2022/04/23 06:45:19;;;;;;;11.00;8.10;;;;;;;11.38;95.14;97785.09;4484887;31;20441;-77
2022/04/23 06:47:46;;;;;;;13.68;7.53;;;;;;;11.19;94.56;97786.28;4484857;31;20120;-77
2022/04/23 06:50:14;;;;;;;10.77;8.15;;;;;;;10.91;95.71;97796.28;4484542;31;20119;-78
2022/04/23 06:52:41;;;;;;;11.77;7.95;;;;;;;10.70;96.13;97801.97;4484548;31;20097;-77
2022/04/23 06:55:08;;;;;;;13.02;8.45;;;;;;;11.26;94.27;97802.97;4484265;31;20085;-77
2022/04/23 06:57:43;;;;;;;12.27;8.63;;;;;;;11.52;92.82;97797.53;4484541;32;20139;-77
2022/04/23 07:00:12;;;;;;;11.95;8.07;;;;;;;11.56;92.46;97797.19;4484614;31;20107;-78
2022/04/23 07:02:39;;;;;;;11.70;8.30;;;;;;;11.50;92.00;97804.72;4484454;31;20135;-78
2022/04/23 07:05:08;;;;;;;12.25;7.90;;;;;;;11.50;91.85;97802.12;4484163;31;20408;-78
2022/04/23 07:07:35;;;;;;;11.55;8.18;;;;;;;11.63;91.32;97808.66;4484036;31;20453;-78
2022/04/23 07:10:03;;;;;;;12.07;8.02;;;;;;;11.77;91.15;97812.41;4484496;31;20157;-78
2022/04/23 07:12:33;;;;;;;12.35;8.77;;;;;;;11.76;91.75;97808.94;4484329;31;20438;-78
2022/04/23 07:15:00;;;;;;;12.85;9.00;;;;;;;11.92;90.80;97810.72;4484111;31;20526;-78
2022/04/23 07:17:27;;;;;;;13.18;7.87;;;;;;;11.93;89.99;97811.53;4484301;32;20092;-78
2022/04/23 07:19:54;;;;;;;11.68;7.60;;;;;;;11.80;90.52;97812.87;4484181;31;20092;-77
2022/04/23 07:22:22;;;;;;;11.50;8.90;;;;;;;11.52;91.42;97813.28;4484149;31;20379;-77
2022/04/23 07:24:50;;;;;;;11.30;7.80;;;;;;;11.62;89.89;97817.50;4484435;32;20119;-78
2022/04/23 07:27:17;;;;;;;11.07;8.38;;;;;;;12.02;90.20;97821.87;4484113;31;20708;-78
2022/04/23 07:29:45;;;;;;;11.55;7.62;;;;;;;11.83;90.29;97824.84;4483916;32;20153;-78
2022/04/23 07:32:12;;;;;;;13.07;9.52;;;;;;;11.81;91.37;97834.69;4483854;31;20091;-78
2022/04/23 07:37:28;;;;;;;16.85;9.38;;;;;;;11.72;95.07;97831.28;4483872;31;20163;-77
2022/04/23 07:39:59;;;;;;;16.50;10.77;;;;;;;11.75;95.51;97836.19;4483963;31;20084;-77
2022/04/23 07:42:27;;;;;;;13.13;9.80;;;;;;;11.72;94.41;97831.28;4483953;31;20132;-77
2022/04/23 07:44:54;;;;;;;17.75;10.30;;;;;;;11.83;92.09;97833.53;4483875;31;20096;-77
2022/04/23 07:47:22;;;;;;;14.75;10.82;;;;;;;11.62;93.35;97836.69;4484789;32;20105;-77
2022/04/23 07:49:49;;;;;;;12.57;9.73;;;;;;;12.11;92.57;97838.38;4486221;31;20084;-77
2022/04/23 07:52:17;;;;;;;14.73;10.00;;;;;;;12.12;92.67;97841.84;4486055;31;20157;-77
2022/04/23 07:54:44;;;;;;;15.07;10.90;;;;;;;12.24;89.92;97838.66;4485862;31;20096;-77
2022/04/23 07:57:12;;;;;;;13.32;10.27;;;;;;;12.01;91.78;97845.66;4486001;31;20108;-77
2022/04/23 07:59:43;;;;;;;16.23;11.18;;;;;;;11.79;92.89;97858.47;4485990;31;20492;-77
2022/04/23 08:02:10;;;;;;;15.43;10.50;;;;;;;11.87;92.85;97852.41;4485955;31;20076;-77
2022/04/23 08:04:38;;;;;;;17.42;10.48;;;;;;;11.82;92.27;97849.44;4485823;32;20130;-77
2022/04/23 08:07:06;;;;;;;15.02;10.43;;;;;;;11.77;92.27;97859.63;4480609;31;20108;-76
2022/04/23 08:09:39;;;;;;;14.87;10.45;;;;;;;11.85;94.30;97855.19;4470244;32;20115;-77
2022/04/23 08:12:09;;;;;;;14.73;9.88;;;;;;;11.88;93.04;97860.09;4473916;32;20163;-77
2022/04/23 08:14:38;;;;;;;12.52;9.95;;;;;;;12.20;91.02;97853.16;4477253;31;20092;-78
2022/04/23 08:17:05;;;;;;;16.10;10.02;;;;;;;12.55;88.27;97853.66;4484343;31;20108;-77
2022/04/23 08:19:32;;;;;;;15.48;10.35;;;;;;;12.94;85.88;97858.00;4485919;31;20112;-77
2022/04/23 08:22:00;;;;;;;14.55;10.10;;;;;;;12.84;83.95;97860.06;4485735;32;20093;-78
2022/04/23 08:24:28;;;;;;;15.48;9.85;;;;;;;12.98;82.82;97861.09;4484923;31;20441;-78
2022/04/23 08:26:55;;;;;;;15.23;9.68;;;;;;;13.52;81.52;97860.22;4486004;31;20120;-78
2022/04/23 08:32:08;;;;;;;14.10;9.93;;;;;;;13.61;79.86;97866.22;4470134;32;20072;-77
2022/04/23 08:34:35;;;;;;;12.05;9.23;;;;;;;13.50;80.01;97862.19;4469852;32;20123;-77
2022/04/23 08:37:03;;;;;;;13.50;10.43;;;;;;;13.17;78.77;97867.72;4469921;32;20429;-77
2022/04/23 08:39:30;;;;;;;16.33;9.65;;;;;;;13.30;79.18;97861.84;4469948;32;20532;-77
2022/04/23 08:41:58;;;;;;;13.52;10.57;;;;;;;13.66;76.65;97862.06;4480493;32;20122;-77
2022/04/23 08:44:25;;;;;;;11.90;9.23;;;;;;;14.04;76.50;97863.81;4480846;32;20139;-77
2022/04/23 08:46:55;;;;;;;11.77;9.02;;;;;;;14.29;75.10;97859.09;4485477;31;20542;-77
2022/04/23 08:49:29;;;;;;;10.52;8.13;;;;;;;14.35;70.71;97868.06;4485680;31;20199;-77
2022/04/23 08:52:11;;;;;;;11.88;8.52;;;;;;;14.67;70.73;97866.87;4485640;31;20148;-77
2022/04/23 08:54:39;;;;;;;10.60;8.18;;;;;;;14.81;70.25;97867.81;4484341;32;20088;-77
2022/04/23 08:57:06;;;;;;;14.65;9.45;;;;;;;15.21;70.13;97870.84;4484433;31;20092;-77
2022/04/23 08:59:34;;;;;;;12.80;9.30;;;;;;;15.03;71.70;97878.38;4484279;32;20123;-77
2022/04/23 09:02:02;;;;;;;16.05;10.88;;;;;;;14.70;75.44;97879.69;4484132;32;20089;-77
2022/04/23 09:04:30;;;;;;;14.57;9.57;;;;;;;14.51;74.78;97888.13;4485406;31;20209;-77
2022/04/23 09:06:59;;;;;;;15.00;9.88;;;;;;;14.23;74.86;97885.34;4485379;31;20088;-77
2022/04/23 09:09:26;;;;;;;12.20;8.93;;;;;;;13.67;76.94;97891.81;4485331;31;20109;-77
2022/04/23 09:11:56;;;;;;;13.43;9.25;;;;;;;13.41;77.57;97902.72;4485371;32;20116;-77
2022/04/23 09:14:30;;;;;;;12.37;9.32;;;;;;;13.31;77.84;97893.25;4485316;31;20115;-77
2022/04/23 09:25:35;;;;;;;15.27;9.63;;;;;;;13.00;82.75;97906.44;4485489;32;20107;-77
2022/04/23 09:28:16;;;;;;;14.55;9.70;;;;;;;12.73;83.42;97905.09;4485263;31;20104;-77
2022/04/23 09:30:44;;;;;;;14.38;9.43;;;;;;;12.54;82.62;97912.44;4485427;31;20474;-77
2022/04/23 09:33:12;;;;;;;12.70;9.43;;;;;;;12.36;86.21;97909.22;4485311;31;20648;-77
2022/04/23 09:36:15;;;;;;;12.02;9.35;;;;;;;12.45;85.01;97908.19;4484994;31;20104;-77
2022/04/23 09:38:42;;;;;;;16.00;9.02;;;;;;;12.37;85.21;97911.69;4420777;32;20133;-77
2022/04/23 09:41:21;;;;;;;13.02;9.00;;;;;;;12.22;84.90;97918.63;4420828;32;20097;-77
2022/04/23 09:44:09;;;;;;;14.38;9.30;;;;;;;12.33;86.63;97920.06;4421067;32;20175;-77
2022/04/23 09:46:44;;;;;;;13.90;9.10;;;;;;;12.18;85.81;97907.63;4420794;32;20159;-76
2022/04/23 09:49:30;;;;;;;12.48;8.70;;;;;;;12.25;85.40;97916.47;4421062;32;20121;-77
2022/04/23 09:52:09;;;;;;;13.20;9.63;;;;;;;12.23;84.02;97921.06;4421147;32;20097;-77
2022/04/23 09:54:38;;;;;;;14.63;9.50;;;;;;;12.06;86.41;97924.72;4420604;32;20138;-77
2022/04/23 09:57:06;;;;;;;12.57;8.80;;;;;;;12.13;86.51;97919.63;4420748;32;20312;-77
2022/04/23 09:59:33;;;;;;;11.63;9.00;;;;;;;12.28;85.39;97922.34;4420612;32;20569;-77
2022/04/23 10:02:02;;;;;;;12.68;8.88;;;;;;;12.47;84.82;97913.28;4420531;32;20097;-77
2022/04/23 10:04:31;;;;;;;14.73;9.50;;;;;;;12.32;86.55;97919.22;4420560;32;20117;-77
2022/04/23 10:07:00;;;;;;;14.20;9.25;;;;;;;12.77;84.07;97922.97;4420394;32;20098;-77
2022/04/23 10:09:28;;;;;;;15.20;9.68;;;;;;;12.89;82.64;97930.50;4420144;32;20128;-77
2022/04/23 10:12:01;;;;;;;12.95;9.02;;;;;;;13.03;83.10;97928.94;4418155;32;20582;-77
2022/04/23 10:14:34;;;;;;;15.60;9.60;;;;;;;13.10;81.70;97937.78;4483971;32;20175;-77
2022/04/23 10:17:10;;;;;;;15.27;8.90;;;;;;;13.14;80.48;97941.66;4485363;31;20084;-77
2022/04/23 10:19:37;;;;;;;15.60;9.13;;;;;;;12.93;81.35;97939.69;4485186;31;20115;-77
2022/04/23 10:22:31;;;;;;;13.77;9.60;;;;;;;13.01;79.83;97938.81;4483893;32;20501;-77
2022/04/23 10:25:28;;;;;;;14.85;9.43;;;;;;;13.03;80.56;97932.38;4408152;32;20585;-78
2022/04/23 10:27:57;;;;;;;14.10;9.38;;;;;;;13.28;80.85;97935.69;4420524;32;20114;-77
2022/04/23 10:30:28;;;;;;;16.45;10.20;;;;;;;13.54;78.94;97928.47;4420448;32;20172;-77
2022/04/23 10:32:55;;;;;;;13.27;8.32;;;;;;;13.95;77.13;97936.81;4420468;32;20136;-77
2022/04/23 10:35:22;;;;;;;13.35;9.13;;;;;;;14.13;75.83;97938.28;4407730;32;20116;-77
2022/04/23 10:37:56;;;;;;;13.30;8.90;;;;;;;14.53;72.55;97929.13;4420457;32;20482;-77
2022/04/23 10:40:23;;;;;;;12.35;7.97;;;;;;;14.81;72.53;97938.22;4420401;32;20148;-77
2022/04/23 10:43:12;;;;;;;12.95;8.40;;;;;;;14.88;72.39;97936.44;4420230;32;20101;-77
2022/04/23 10:45:40;;;;;;;12.20;8.75;;;;;;;15.07;68.97;97943.78;4420348;32;20168;-77
2022/04/23 10:48:22;;;;;;;13.55;9.93;;;;;;;15.12;69.56;97952.97;4419999;32;20124;-77
2022/04/23 10:51:05;;;;;;;10.15;7.57;;;;;;;15.19;68.58;97949.38;4420298;32;20451;-77
2022/04/23 10:53:37;;;;;;;9.70;7.90;;;;;;;15.43;68.92;97955.31;4419954;32;20162;-77
2022/04/23 10:56:16;;;;;;;13.53;7.77;;;;;;;15.79;65.69;97955.25;4420385;32;20498;-77
2022/04/23 10:58:43;;;;;;;10.25;7.55;;;;;;;15.96;66.14;97955.78;4419901;32;20117;-78
2022/04/23 11:01:29;;;;;;;11.82;8.60;;;;;;;15.80;65.61;97964.00;4428410;32;20173;-77
2022/04/23 11:04:06;;;;;;;10.60;7.90;;;;;;;15.88;66.38;97955.94;4484534;31;20110;-78
2022/04/23 11:12:28;;;;;;;10.05;7.40;;;;;;;15.89;64.96;97960.19;4483062;32;20122;-77
2022/04/23 11:14:56;;;;;;;13.70;7.87;;;;;;;15.87;66.19;97956.13;4484521;31;20145;-77
2022/04/23 11:17:40;;;;;;;9.63;7.30;;;;;;;15.65;66.58;97953.47;4484229;32;20089;-78
2022/04/23 11:20:08;;;;;;;11.48;7.05;;;;;;;15.21;68.34;97947.38;4484374;32;20119;-77
2022/04/23 11:22:35;;;;;;;8.95;6.90;;;;;;;14.71;69.53;97949.03;4484965;32;20164;-77
2022/04/23 11:25:03;;;;;;;10.70;7.43;;;;;;;14.58;69.99;97952.31;4485016;32;20111;-77
2022/04/23 11:27:38;;;;;;;10.35;7.20;;;;;;;14.79;69.16;97956.03;4486233;31;20105;-78
2022/04/23 11:30:06;;;;;;;12.02;7.35;;;;;;;14.38;70.87;97955.47;4485977;31;20442;-78
2022/04/23 11:32:34;;;;;;;11.52;7.93;;;;;;;14.24;72.26;97964.19;4486405;31;20089;-78
2022/04/23 11:35:05;;;;;;;11.93;8.20;;;;;;;14.55;73.20;97958.75;4485947;31;20101;-78
2022/04/23 11:37:34;;;;;;;11.60;8.52;;;;;;;14.48;72.25;97957.84;4486135;31;20085;-78
2022/04/23 11:40:06;;;;;;;12.15;8.00;;;;;;;14.54;72.26;97953.66;4486008;31;20515;-77
2022/04/23 11:42:44;;;;;;;12.93;8.18;;;;;;;14.93;71.17;97964.91;4486176;31;20139;-77
2022/04/23 11:45:13;;;;;;;10.75;7.75;;;;;;;15.19;69.17;97965.22;4485919;31;20080;-77
2022/04/23 11:47:41;;;;;;;12.85;8.18;;;;;;;15.71;68.50;97973.03;4486299;32;20188;-77
2022/04/23 11:50:16;;;;;;;9.88;7.25;;;;;;;16.05;66.55;97967.03;4484775;32;20159;-77